createdAt,value
2022-09-22T00:01:34.830Z,99875.59
2022-09-22T00:04:08.091Z,99876.02
2022-09-22T00:06:47.732Z,99875.04
2022-09-22T00:09:18.804Z,99875.08
2022-09-22T00:12:21.604Z,99874.30
2022-09-22T00:14:54.230Z,99878.09
2022-09-22T00:17:23.412Z,99882.23
2022-09-22T00:19:52.470Z,99878.95
2022-09-22T00:22:20.218Z,99881.99
2022-09-22T00:24:48.531Z,99879.24
2022-09-22T00:27:16.625Z,99881.61
2022-09-22T00:29:45.023Z,99880.27
2022-09-22T00:32:13.827Z,99877.89
2022-09-22T00:34:41.616Z,99874.28
2022-09-22T00:37:09.387Z,99870.69
2022-09-22T00:39:37.308Z,99873.08
2022-09-22T00:42:05.246Z,99871.98
2022-09-22T00:44:41.523Z,99863.32
2022-09-22T00:47:18.763Z,99862.70
2022-09-22T00:49:52.772Z,99863.03
2022-09-22T00:52:26.024Z,99861.46
2022-09-22T00:54:57.980Z,99855.33
2022-09-22T00:57:29.937Z,99857.09
2022-09-22T00:59:58.362Z,99854.04
2022-09-22T01:02:26.106Z,99851.73
2022-09-22T01:04:54.098Z,99850.14
2022-09-22T01:07:25.348Z,99847.30
2022-09-22T01:09:53.517Z,99845.85
2022-09-22T01:12:23.434Z,99847.58
2022-09-22T01:15:22.679Z,99847.95
2022-09-22T01:18:30.573Z,99849.52
2022-09-22T01:21:27.671Z,99848.98
2022-09-22T01:24:14.638Z,99846.64
2022-09-22T01:27:34.347Z,99848.92
2022-09-22T01:30:16.441Z,99847.56
2022-09-22T01:33:13.137Z,99847.21
2022-09-22T01:35:56.316Z,99851.74
2022-09-22T01:38:30.344Z,99854.13
2022-09-22T01:41:08.331Z,99855.44
2022-09-22T01:43:49.385Z,99850.98
2022-09-22T01:46:43.124Z,99847.06
2022-09-22T01:49:15.682Z,99844.66
2022-09-22T01:51:52.049Z,99845.47
2022-09-22T01:54:26.962Z,99846.86
2022-09-22T01:57:10.400Z,99852.48
2022-09-22T01:59:40.996Z,99854.43
2022-09-22T02:02:22.711Z,99853.71
2022-09-22T02:04:57.093Z,99851.40
2022-09-22T02:07:33.935Z,99848.96
2022-09-22T02:10:09.004Z,99851.62
2022-09-22T02:12:37.751Z,99850.05
2022-09-22T02:15:30.508Z,99848.13
2022-09-22T02:18:03.279Z,99845.14
2022-09-22T02:20:31.072Z,99843.71
2022-09-22T02:22:59.627Z,99844.33
2022-09-22T02:25:28.854Z,99846.34
2022-09-22T02:27:58.325Z,99845.88
2022-09-22T02:30:27.997Z,99843.86
2022-09-22T02:32:56.985Z,99840.45
2022-09-22T02:35:30.250Z,99842.97
2022-09-22T02:38:10.335Z,99844.98
2022-09-22T02:41:00.567Z,99842.09
2022-09-22T02:43:38.607Z,99839.91
2022-09-22T02:46:16.414Z,99837.02
2022-09-22T02:48:49.516Z,99836.22
2022-09-22T02:51:18.816Z,99841.20
2022-09-22T02:53:46.673Z,99841.45
2022-09-22T02:56:14.504Z,99838.01
2022-09-22T02:58:42.617Z,99840.34
2022-09-22T03:01:11.263Z,99835.16
2022-09-22T03:03:39.077Z,99834.85
2022-09-22T03:06:06.952Z,99832.14
2022-09-22T03:08:34.858Z,99832.74
2022-09-22T03:11:03.530Z,99836.86
2022-09-22T03:13:31.341Z,99839.55
2022-09-22T03:15:59.146Z,99836.28
2022-09-22T03:18:26.925Z,99831.75
2022-09-22T03:20:55.558Z,99829.85
2022-09-22T03:23:23.289Z,99827.92
2022-09-22T03:25:51.038Z,99833.41
2022-09-22T03:28:19.430Z,99836.27
2022-09-22T03:30:47.774Z,99834.73
2022-09-22T03:33:15.490Z,99832.33
2022-09-22T03:35:43.807Z,99830.61
2022-09-22T03:38:11.584Z,99828.04
2022-09-22T03:40:39.662Z,99828.95
2022-09-22T03:43:07.591Z,99829.04
2022-09-22T03:45:35.982Z,99832.96
2022-09-22T03:48:03.961Z,99840.37
2022-09-22T03:50:34.651Z,99839.20
2022-09-22T03:53:04.598Z,99837.83
2022-09-22T03:55:32.489Z,99839.62
2022-09-22T03:58:00.413Z,99836.53
2022-09-22T04:00:28.726Z,99837.47
2022-09-22T04:02:58.283Z,99838.23
2022-09-22T04:05:26.039Z,99839.51
2022-09-22T04:07:53.955Z,99836.55
2022-09-22T04:10:22.519Z,99837.63
2022-09-22T04:12:51.658Z,99838.73
2022-09-22T04:15:25.001Z,99840.20
2022-09-22T04:17:54.326Z,99842.35
2022-09-22T04:20:22.219Z,99837.85
2022-09-22T04:22:50.365Z,99834.23
2022-09-22T04:25:18.314Z,99838.65
2022-09-22T04:27:47.591Z,99841.36
2022-09-22T04:30:15.839Z,99845.63
2022-09-22T04:32:44.637Z,99847.60
2022-09-22T04:35:12.445Z,99846.73
2022-09-22T04:37:40.198Z,99845.91
2022-09-22T04:40:08.789Z,99849.97
2022-09-22T04:42:36.586Z,99849.45
2022-09-22T04:45:33.967Z,99850.13
2022-09-22T04:48:05.650Z,99852.38
2022-09-22T04:50:33.426Z,99850.56
2022-09-22T04:53:08.080Z,99849.05
2022-09-22T04:55:36.239Z,99851.81
2022-09-22T04:58:04.853Z,99850.34
2022-09-22T05:00:32.732Z,99852.58
2022-09-22T05:03:02.235Z,99857.33
2022-09-22T05:05:30.127Z,99857.71
2022-09-22T05:08:01.372Z,99858.22
2022-09-22T05:10:32.400Z,99857.95
2022-09-22T05:13:00.218Z,99856.40
2022-09-22T05:15:28.051Z,99856.30
2022-09-22T05:17:55.853Z,99858.98
2022-09-22T05:20:24.187Z,99862.60
2022-09-22T05:22:53.302Z,99861.17
2022-09-22T05:25:21.473Z,99859.48
2022-09-22T05:27:52.015Z,99858.48
2022-09-22T05:30:23.504Z,99861.41
2022-09-22T05:32:51.612Z,99860.65
2022-09-22T05:35:25.502Z,99865.13
2022-09-22T05:37:54.144Z,99864.80
2022-09-22T05:40:26.326Z,99866.31
2022-09-22T05:42:55.752Z,99864.56
2022-09-22T05:45:24.160Z,99866.36
2022-09-22T05:47:53.112Z,99871.16
2022-09-22T05:50:23.923Z,99873.60
2022-09-22T05:53:01.363Z,99874.35
2022-09-22T05:55:29.233Z,99872.61
2022-09-22T05:57:58.556Z,99870.45
2022-09-22T06:00:28.383Z,99872.88
2022-09-22T06:02:57.550Z,99873.48
2022-09-22T06:05:26.247Z,99873.84
2022-09-22T06:08:03.750Z,99873.35
2022-09-22T06:10:33.532Z,99876.38
2022-09-22T06:13:05.620Z,99881.36
2022-09-22T06:15:36.426Z,99885.56
2022-09-22T06:18:14.661Z,99884.00
2022-09-22T06:20:43.244Z,99881.08
2022-09-22T06:23:13.678Z,99881.43
2022-09-22T06:25:43.597Z,99884.14
2022-09-22T06:28:14.990Z,99883.13
2022-09-22T06:30:42.929Z,99876.23
2022-09-22T06:33:11.810Z,99879.38
2022-09-22T06:35:43.390Z,99887.55
2022-09-22T06:38:15.165Z,99887.94
2022-09-22T06:40:44.587Z,99891.11
2022-09-22T06:43:24.104Z,99892.32
2022-09-22T06:45:53.473Z,99892.61
2022-09-22T06:48:24.102Z,99894.91
2022-09-22T06:50:54.519Z,99897.20
2022-09-22T06:53:27.307Z,99894.30
2022-09-22T06:55:55.908Z,99891.44
2022-09-22T06:58:25.262Z,99892.48
2022-09-22T07:00:54.036Z,99897.46
2022-09-22T07:03:24.498Z,99899.41
2022-09-22T07:05:57.636Z,99895.39
2022-09-22T07:08:26.195Z,99898.68
2022-09-22T07:10:59.607Z,99901.67
2022-09-22T07:13:48.477Z,99900.70
2022-09-22T07:16:18.447Z,99901.30
2022-09-22T07:18:48.939Z,99904.59
2022-09-22T07:21:30.171Z,99900.29
2022-09-22T07:23:58.380Z,99901.55
2022-09-22T07:26:32.779Z,99906.45
2022-09-22T07:29:04.134Z,99909.39
2022-09-22T07:31:34.951Z,99912.05
2022-09-22T07:34:03.614Z,99911.06
2022-09-22T07:36:43.890Z,99911.23
2022-09-22T07:39:17.199Z,99911.75
2022-09-22T07:41:48.310Z,99914.60
2022-09-22T07:44:35.648Z,99919.45
2022-09-22T07:47:05.536Z,99923.64
2022-09-22T07:49:33.546Z,99918.71
2022-09-22T07:52:01.519Z,99916.73
2022-09-22T07:54:29.361Z,99922.41
2022-09-22T07:56:59.069Z,99920.45
2022-09-22T07:59:27.707Z,99921.95
2022-09-22T08:02:21.313Z,99922.50
2022-09-22T08:04:49.608Z,99926.60
2022-09-22T08:07:17.746Z,99924.89
2022-09-22T08:09:45.479Z,99923.53
2022-09-22T08:12:15.162Z,99918.00
2022-09-22T08:14:45.355Z,99924.83
2022-09-22T08:17:14.951Z,99925.66
2022-09-22T08:19:42.892Z,99928.00
2022-09-22T08:22:11.015Z,99926.30
2022-09-22T08:24:38.766Z,99932.16
2022-09-22T08:27:06.514Z,99928.67
2022-09-22T08:29:36.683Z,99929.75
2022-09-22T08:32:04.730Z,99925.83
2022-09-22T08:34:32.659Z,99925.39
2022-09-22T08:37:00.923Z,99927.83
2022-09-22T08:39:28.867Z,99925.73
2022-09-22T08:42:23.264Z,99925.80
2022-09-22T08:44:52.691Z,99923.63
2022-09-22T08:47:50.609Z,99926.71
2022-09-22T08:50:45.567Z,99923.45
2022-09-22T08:53:23.537Z,99927.63
2022-09-22T08:56:05.656Z,99926.10
2022-09-22T08:59:09.075Z,99925.01
2022-09-22T09:01:43.195Z,99926.27
2022-09-22T09:04:58.178Z,99921.04
2022-09-22T09:07:58.984Z,99919.30
2022-09-22T09:10:46.329Z,99916.31
2022-09-22T09:13:40.782Z,99918.05
2022-09-22T09:16:21.006Z,99916.08
2022-09-22T09:19:00.994Z,99915.98
2022-09-22T09:21:33.910Z,99917.91
2022-09-22T09:27:07.011Z,99918.52
2022-09-22T09:29:44.699Z,99917.63
2022-09-22T09:32:22.756Z,99917.98
2022-09-22T09:34:55.735Z,99914.36
2022-09-22T09:37:25.629Z,99915.09
2022-09-22T09:40:02.949Z,99914.56
2022-09-22T09:42:37.961Z,99910.51
2022-09-22T09:45:07.170Z,99913.55
2022-09-22T09:48:03.197Z,99912.50
2022-09-22T09:50:32.477Z,99914.20
2022-09-22T09:53:00.928Z,99913.38
2022-09-22T09:55:29.680Z,99913.04
2022-09-22T09:58:32.815Z,99912.05
2022-09-22T10:01:07.289Z,99913.02
2022-09-22T10:03:42.488Z,99914.16
2022-09-22T10:06:12.005Z,99911.38
2022-09-22T10:08:49.866Z,99906.69
2022-09-22T10:11:31.596Z,99908.05
2022-09-22T10:14:00.863Z,99907.79
2022-09-22T10:16:31.082Z,99910.66
2022-09-22T10:19:21.302Z,99910.50
2022-09-22T10:21:49.980Z,99905.66
2022-09-22T10:24:32.080Z,99906.15
2022-09-22T10:27:03.970Z,99905.00
2022-09-22T10:29:35.698Z,99900.42
2022-09-22T10:32:15.312Z,99900.64
2022-09-22T10:34:51.779Z,99895.58
2022-09-22T10:37:26.487Z,99894.31
2022-09-22T10:40:00.591Z,99891.63
2022-09-22T10:42:45.663Z,99892.64
2022-09-22T10:45:20.433Z,99887.92
2022-09-22T10:50:57.960Z,99888.11
2022-09-22T10:53:58.156Z,99885.52
2022-09-22T10:56:46.880Z,99885.54
2022-09-22T10:59:47.961Z,99878.34
2022-09-22T11:02:48.212Z,99874.80
2022-09-22T11:06:14.009Z,99873.73
2022-09-22T11:09:20.798Z,99875.16
2022-09-22T11:12:18.075Z,99876.98
2022-09-22T11:15:18.393Z,99877.98
2022-09-22T11:17:58.781Z,99873.73
2022-09-22T11:20:34.568Z,99870.67
2022-09-22T11:23:25.355Z,99865.92
2022-09-22T11:26:15.645Z,99860.63
2022-09-22T11:29:09.148Z,99868.09
2022-09-22T11:31:49.075Z,99866.30
2022-09-22T11:34:47.044Z,99868.73
2022-09-22T11:37:40.427Z,99862.67
2022-09-22T11:40:27.649Z,99857.74
2022-09-22T11:43:09.499Z,99853.61
2022-09-22T11:45:56.212Z,99847.14
2022-09-22T11:48:59.367Z,99843.46
2022-09-22T11:51:46.199Z,99842.84
2022-09-22T11:54:33.277Z,99839.91
2022-09-22T11:57:09.888Z,99838.17
2022-09-22T12:03:03.552Z,99831.66
2022-09-22T12:05:50.039Z,99826.69
2022-09-22T12:08:23.739Z,99827.84
2022-09-22T12:10:52.992Z,99825.66
2022-09-22T12:13:28.369Z,99821.89
2022-09-22T12:16:07.269Z,99820.80
2022-09-22T12:19:01.443Z,99820.17
2022-09-22T12:21:32.224Z,99823.25
2022-09-22T12:24:04.167Z,99824.30
2022-09-22T12:26:34.173Z,99816.54
2022-09-22T12:29:25.410Z,99815.77
2022-09-22T12:31:58.820Z,99812.40
2022-09-22T12:34:34.575Z,99809.98
2022-09-22T12:37:14.862Z,99806.59
2022-09-22T12:39:48.751Z,99807.41
2022-09-22T12:42:39.555Z,99810.02
2022-09-22T12:45:25.810Z,99808.63
2022-09-22T12:47:57.753Z,99811.56
2022-09-22T12:50:33.234Z,99808.33
2022-09-22T12:53:04.671Z,99807.34
2022-09-22T12:55:40.628Z,99813.76
2022-09-22T12:58:20.446Z,99814.77
2022-09-22T13:00:53.919Z,99815.41
2022-09-22T13:03:26.484Z,99813.47
2022-09-22T13:06:01.372Z,99813.02
2022-09-22T13:08:35.830Z,99809.88
2022-09-22T13:11:06.289Z,99806.77
2022-09-22T13:13:39.558Z,99804.65
2022-09-22T13:16:50.026Z,99806.23
2022-09-22T13:19:17.904Z,99804.16
2022-09-22T13:21:47.707Z,99801.37
2022-09-22T13:24:23.666Z,99795.98
2022-09-22T13:27:04.844Z,99795.23
2022-09-22T13:29:32.953Z,99795.21
2022-09-22T13:32:18.542Z,99794.27
2022-09-22T13:34:48.524Z,99787.91
2022-09-22T13:37:23.974Z,99788.09
2022-09-22T13:39:55.931Z,99792.23
2022-09-22T13:42:32.046Z,99793.77
2022-09-22T13:45:07.950Z,99790.55
2022-09-22T13:47:36.924Z,99786.04
2022-09-22T13:50:13.015Z,99785.70
2022-09-22T13:52:41.619Z,99781.39
2022-09-22T13:55:48.019Z,99781.57
2022-09-22T13:58:35.976Z,99780.34
2022-09-22T14:01:13.879Z,99774.94
2022-09-22T14:03:43.856Z,99774.02
2022-09-22T14:06:24.565Z,99772.32
2022-09-22T14:08:53.763Z,99771.93
2022-09-22T14:11:24.787Z,99773.44
2022-09-22T14:14:00.224Z,99772.06
2022-09-22T14:16:46.388Z,99774.57
2022-09-22T14:19:17.362Z,99777.13
2022-09-22T14:21:51.315Z,99776.73
2022-09-22T14:24:19.994Z,99781.15
2022-09-22T14:27:04.011Z,99777.65
2022-09-22T14:29:34.247Z,99776.59
2022-09-22T14:32:24.909Z,99776.41
2022-09-22T14:35:00.334Z,99771.64
2022-09-22T14:37:40.891Z,99775.21
2022-09-22T14:40:21.192Z,99774.23
2022-09-22T14:43:03.771Z,99769.58
2022-09-22T14:45:32.979Z,99768.00
2022-09-22T14:48:13.958Z,99767.16
2022-09-22T14:50:47.878Z,99768.40
2022-09-22T14:53:23.095Z,99765.86
2022-09-22T14:55:56.063Z,99768.02
2022-09-22T14:58:28.101Z,99768.09
2022-09-22T15:01:26.063Z,99768.50
2022-09-22T15:04:04.937Z,99763.59
2022-09-22T15:06:37.279Z,99760.17
2022-09-22T15:09:13.420Z,99766.16
2022-09-22T15:12:02.502Z,99759.23
2022-09-22T15:14:57.011Z,99756.59
2022-09-22T15:18:02.477Z,99754.34
2022-09-22T15:20:42.895Z,99751.14
2022-09-22T15:23:27.618Z,99752.84
2022-09-22T15:25:56.308Z,99756.58
2022-09-22T15:28:27.209Z,99757.05
2022-09-22T15:30:58.759Z,99751.26
2022-09-22T15:33:27.106Z,99754.48
2022-09-22T15:36:01.788Z,99753.23
2022-09-22T15:38:32.879Z,99757.22
2022-09-22T15:41:02.033Z,99751.88
2022-09-22T15:43:33.690Z,99750.08
2022-09-22T15:46:04.995Z,99752.56
2022-09-22T15:48:37.704Z,99753.59
2022-09-22T15:51:12.973Z,99756.59
2022-09-22T15:53:41.836Z,99755.92
2022-09-22T15:56:18.617Z,99756.86
2022-09-22T15:58:49.813Z,99755.46
2022-09-22T16:01:18.370Z,99749.27
2022-09-22T16:03:46.292Z,99751.05
2022-09-22T16:06:18.233Z,99751.94
2022-09-22T16:08:48.304Z,99754.30
2022-09-22T16:11:23.407Z,99757.59
2022-09-22T16:13:51.603Z,99759.84
2022-09-22T16:16:19.766Z,99756.35
2022-09-22T16:18:47.676Z,99753.67
2022-09-22T16:21:20.048Z,99751.44
2022-09-22T16:23:49.393Z,99751.89
2022-09-22T16:26:17.643Z,99756.10
2022-09-22T16:28:45.794Z,99756.71
2022-09-22T16:31:14.492Z,99756.69
2022-09-22T16:33:44.092Z,99759.78
2022-09-22T16:36:13.409Z,99760.36
2022-09-22T16:38:41.876Z,99758.21
2022-09-22T16:41:26.064Z,99754.75
2022-09-22T16:43:55.877Z,99751.77
2022-09-22T16:46:28.700Z,99754.42
2022-09-22T16:49:00.761Z,99758.20
2022-09-22T16:51:31.203Z,99758.93
2022-09-22T16:54:03.226Z,99754.71
2022-09-22T16:56:33.625Z,99754.95
2022-09-22T16:59:02.986Z,99758.14
2022-09-22T17:01:38.311Z,99753.77
2022-09-22T17:04:10.612Z,99752.55
2022-09-22T17:06:41.124Z,99756.73
2022-09-22T17:09:11.000Z,99754.48
2022-09-22T17:11:50.093Z,99752.16
2022-09-22T17:14:25.604Z,99751.11
2022-09-22T17:16:56.794Z,99754.23
2022-09-22T17:19:27.991Z,99753.59
2022-09-22T17:21:56.775Z,99756.13
2022-09-22T17:24:27.054Z,99754.40
2022-09-22T17:26:57.363Z,99756.05
2022-09-22T17:29:30.045Z,99754.94
2022-09-22T17:32:02.910Z,99756.61
2022-09-22T17:34:37.046Z,99756.14
2022-09-22T17:37:05.714Z,99756.77
2022-09-22T17:39:34.028Z,99755.26
2022-09-22T17:42:03.037Z,99756.10
2022-09-22T17:44:37.421Z,99754.73
2022-09-22T17:47:26.156Z,99756.56
2022-09-22T17:50:12.975Z,99757.94
2022-09-22T17:53:00.094Z,99760.58
2022-09-22T17:55:28.593Z,99762.84
2022-09-22T17:57:57.662Z,99762.06
2022-09-22T18:00:26.462Z,99764.63
2022-09-22T18:02:55.328Z,99766.85
2022-09-22T18:05:27.021Z,99771.89
2022-09-22T18:07:58.099Z,99776.05
2022-09-22T18:10:31.275Z,99776.35
2022-09-22T18:13:01.848Z,99778.90
2022-09-22T18:15:31.485Z,99782.14
2022-09-22T18:18:00.702Z,99787.86
2022-09-22T18:20:28.839Z,99787.45
2022-09-22T18:22:58.172Z,99789.23
2022-09-22T18:25:28.522Z,99792.80
2022-09-22T18:27:57.215Z,99792.70
2022-09-22T18:30:27.155Z,99793.33
2022-09-22T18:32:56.417Z,99794.80
2022-09-22T18:35:28.057Z,99795.23
2022-09-22T18:37:56.780Z,99794.39
2022-09-22T18:40:24.838Z,99792.32
2022-09-22T18:42:54.779Z,99789.17
2022-09-22T18:45:23.509Z,99787.84
2022-09-22T18:47:52.378Z,99784.91
2022-09-22T18:50:20.789Z,99788.06
2022-09-22T18:52:56.969Z,99789.45
2022-09-22T18:55:24.909Z,99790.20
2022-09-22T18:57:54.303Z,99790.22
2022-09-22T19:00:22.286Z,99790.27
2022-09-22T19:02:52.564Z,99789.36
2022-09-22T19:05:21.891Z,99790.85
2022-09-22T19:07:51.199Z,99789.84
2022-09-22T19:10:23.703Z,99788.25
2022-09-22T19:12:52.137Z,99787.02
2022-09-22T19:15:23.830Z,99785.27
2022-09-22T19:17:53.700Z,99783.53
2022-09-22T19:20:30.119Z,99785.77
2022-09-22T19:23:11.698Z,99787.49
2022-09-22T19:25:46.461Z,99787.27
2022-09-22T19:28:15.936Z,99786.91
2022-09-22T19:30:46.747Z,99787.71
2022-09-22T19:33:15.542Z,99786.58
2022-09-22T19:35:44.330Z,99793.38
2022-09-22T19:38:13.207Z,99798.10
2022-09-22T19:40:41.789Z,99801.66
2022-09-22T19:43:11.267Z,99801.14
2022-09-22T19:45:42.572Z,99799.34
2022-09-22T19:48:12.474Z,99800.59
2022-09-22T19:50:42.344Z,99800.27
2022-09-22T19:53:10.906Z,99797.98
2022-09-22T19:55:40.134Z,99796.75
2022-09-22T19:58:08.505Z,99795.70
2022-09-22T20:00:39.090Z,99797.25
2022-09-22T20:03:08.315Z,99799.14
2022-09-22T20:05:40.481Z,99796.85
2022-09-22T20:08:21.881Z,99797.69
2022-09-22T20:11:16.314Z,99797.65
2022-09-22T20:14:04.406Z,99794.46
2022-09-22T20:16:34.557Z,99791.07
2022-09-22T20:19:03.374Z,99789.09
2022-09-22T20:21:35.560Z,99787.05
2022-09-22T20:24:06.871Z,99789.60
2022-09-22T20:26:37.124Z,99792.63
2022-09-22T20:29:09.920Z,99793.89
2022-09-22T20:31:39.932Z,99794.78
2022-09-22T20:34:12.982Z,99797.98
2022-09-22T20:36:43.402Z,99791.20
2022-09-22T20:39:15.628Z,99793.84
2022-09-22T20:41:44.760Z,99790.70
2022-09-22T20:44:15.042Z,99791.58
2022-09-22T20:46:44.617Z,99791.42
2022-09-22T20:49:13.861Z,99792.52
2022-09-22T20:51:43.869Z,99793.42
2022-09-22T20:54:16.223Z,99791.38
2022-09-22T20:56:45.446Z,99792.13
2022-09-22T20:59:16.015Z,99788.16
2022-09-22T21:01:44.187Z,99791.43
2022-09-22T21:04:16.129Z,99792.20
2022-09-22T21:06:47.010Z,99787.05
2022-09-22T21:09:33.734Z,99788.51
2022-09-22T21:12:03.095Z,99790.48
2022-09-22T21:14:33.793Z,99792.64
2022-09-22T21:17:08.827Z,99791.48
2022-09-22T21:19:38.843Z,99789.75
2022-09-22T21:22:08.168Z,99788.96
2022-09-22T21:24:44.932Z,99788.70
2022-09-22T21:27:14.592Z,99790.22
2022-09-22T21:29:43.380Z,99796.73
2022-09-22T21:32:11.971Z,99797.11
2022-09-22T21:34:41.993Z,99794.95
2022-09-22T21:37:10.176Z,99793.45
2022-09-22T21:39:38.141Z,99792.52
2022-09-22T21:42:06.261Z,99788.60
2022-09-22T21:44:34.447Z,99788.91
2022-09-22T21:47:02.497Z,99787.27
2022-09-22T21:49:30.541Z,99787.20
2022-09-22T21:52:01.273Z,99786.59
2022-09-22T21:54:31.783Z,99786.34
2022-09-22T21:57:02.818Z,99784.15
2022-09-22T21:59:31.362Z,99783.00
2022-09-22T22:01:59.826Z,99783.06
2022-09-22T22:04:28.050Z,99785.93
2022-09-22T22:06:56.166Z,99781.14
2022-09-22T22:09:26.148Z,99780.89
2022-09-22T22:11:56.989Z,99783.77
2022-09-22T22:14:32.755Z,99782.98
2022-09-22T22:17:02.486Z,99777.08
2022-09-22T22:19:30.424Z,99778.77
2022-09-22T22:21:58.270Z,99781.24
2022-09-22T22:24:29.564Z,99781.48
2022-09-22T22:27:02.488Z,99779.42
2022-09-22T22:29:35.125Z,99780.30
2022-09-22T22:32:09.377Z,99776.29
2022-09-22T22:35:07.574Z,99774.21
2022-09-22T22:37:35.494Z,99772.86
2022-09-22T22:40:04.202Z,99773.42
2022-09-22T22:42:32.644Z,99770.81
2022-09-22T22:45:00.914Z,99770.63
2022-09-22T22:47:28.867Z,99766.45
2022-09-22T22:49:57.044Z,99768.56
2022-09-22T22:52:24.869Z,99765.27
2022-09-22T22:54:53.010Z,99763.39
2022-09-22T22:57:21.316Z,99761.70
2022-09-22T22:59:49.125Z,99761.20
2022-09-22T23:02:17.239Z,99757.08
2022-09-22T23:04:44.938Z,99754.67
2022-09-22T23:07:12.717Z,99754.92
2022-09-22T23:09:41.696Z,99752.69
2022-09-22T23:12:10.722Z,99754.11
2022-09-22T23:14:38.419Z,99755.00
2022-09-22T23:17:06.532Z,99755.55
2022-09-22T23:19:34.594Z,99749.79
2022-09-22T23:22:02.991Z,99748.94
2022-09-22T23:24:33.932Z,99744.77
2022-09-22T23:27:02.753Z,99744.27
2022-09-22T23:29:30.862Z,99743.40
2022-09-22T23:31:58.662Z,99742.70
2022-09-22T23:34:27.602Z,99742.88
2022-09-22T23:36:56.358Z,99743.02
2022-09-22T23:39:24.278Z,99743.54
2022-09-22T23:41:52.445Z,99741.81
2022-09-22T23:44:20.751Z,99740.80
2022-09-22T23:46:50.406Z,99738.91
2022-09-22T23:49:18.477Z,99738.56
2022-09-22T23:51:46.323Z,99739.10
2022-09-22T23:54:14.335Z,99738.92
2022-09-22T23:56:43.529Z,99741.00
2022-09-22T23:59:11.310Z,99735.73
